Time;durP1;ratioP1;P1;durP2;ratioP2;P2;SDS_P1;SDS_P2;PMS_P1;PMS_P2;Temp;Humidity;BMP_temperature;BMP_pressure;BME280_temperature;BME280_humidity;BME280_pressure;Samples;Min_cycle;Max_cycle;Signal;HPM_P1;HPM_P2
2024/01/31 00:01:12;;;;;;;90.30;36.80;;;;;;;1.36;75.06;101723.77;122758;1300;5399196;-63
2024/01/31 00:05:14;;;;;;;81.50;35.00;;;;;;;1.40;74.97;101722.23;125397;1305;115034;-64
2024/01/31 00:09:17;;;;;;;72.30;34.50;;;;;;;1.44;75.14;101726.69;124373;1313;115237;-64
2024/01/31 00:17:39;;;;;;;61.10;26.50;;;;;;;1.56;75.51;101722.58;126560;1291;636058;-64
2024/01/31 00:21:42;;;;;;;53.80;27.10;;;;;;;1.57;75.42;101728.06;127669;1284;128456;-63
2024/01/31 00:25:44;;;;;;;46.90;24.00;;;;;;;1.64;75.56;101731.98;127322;1302;116401;-65
2024/01/31 00:29:50;;;;;;;44.50;19.50;;;;;;;1.68;75.57;101733.98;122198;1308;5436127;-63
2024/01/31 00:33:52;;;;;;;37.90;20.20;;;;;;;1.74;75.63;101732.45;124526;1330;115012;-62
2024/01/31 00:42:02;;;;;;;;;;;;;;;;;;;;;
2024/01/31 00:46:05;;;;;;;36.00;19.20;;;;;;;1.91;75.89;101725.57;127774;1280;128944;-65
2024/01/31 00:50:13;;;;;;;33.80;16.90;;;;;;;1.98;76.22;101723.35;126189;1315;115006;-63
2024/01/31 00:54:14;;;;;;;34.60;16.50;;;;;;;2.04;76.16;101718.45;121273;1325;5418393;-63
2024/01/31 01:02:40;;;;;;;30.60;16.40;;;;;;;2.21;76.00;101726.35;126262;1297;635872;-64
2024/01/31 01:06:29;;;;;;;;;;;;;;;;;;;;;
2024/01/31 01:10:27;;;;;;;;;;;;;;;;;;;;;
2024/01/31 01:14:31;;;;;;;31.00;14.20;;;;;;;2.34;76.11;101722.75;123568;1286;5417086;-63
2024/01/31 01:18:33;;;;;;;32.30;16.40;;;;;;;2.39;76.21;101723.66;125829;1317;114933;-63
2024/01/31 01:22:27;;;;;;;26.40;14.60;;;;;;;2.47;76.27;101727.63;124556;1322;115006;-63
2024/01/31 01:26:16;;;;;;;25.60;14.00;;;;;;;2.57;76.37;101721.86;123870;1317;130149;-65
2024/01/31 01:30:37;;;;;;;28.10;14.60;;;;;;;2.73;76.48;101720.55;126487;1295;635866;-64
2024/01/31 01:34:39;;;;;;;23.70;12.70;;;;;;;2.88;76.70;101717.27;127967;1291;129015;-63
2024/01/31 01:38:41;;;;;;;;;;;;;;;;;;;;;
2024/01/31 01:42:43;;;;;;;19.10;10.70;;;;;;;3.19;76.72;101720.77;121465;1308;5410742;-64
2024/01/31 01:50:59;;;;;;;23.60;12.50;;;;;;;3.53;76.54;101714.52;126121;1297;636268;-63
2024/01/31 01:55:03;;;;;;;26.70;14.10;;;;;;;3.65;76.56;101719.86;128229;1278;129119;-63
2024/01/31 02:03:06;;;;;;;25.60;12.20;;;;;;;3.91;76.28;101713.34;121547;1312;5421228;-63
2024/01/31 02:07:04;;;;;;;;;;;;;;;;;;;;;
2024/01/31 02:15:18;;;;;;;18.60;10.90;;;;;;;4.26;76.00;101705.04;128042;1283;128954;-66
2024/01/31 02:19:20;;;;;;;18.70;10.60;;;;;;;4.35;75.94;101703.27;127292;1289;114927;-64
2024/01/31 02:31:42;;;;;;;18.90;10.90;;;;;;;4.68;75.55;101691.35;126514;1296;637013;-64
2024/01/31 02:39:52;;;;;;;15.70;10.20;;;;;;;4.83;75.14;101689.53;126504;1310;114933;-64
2024/01/31 02:43:45;;;;;;;;;;;;;;;;;;;;;
2024/01/31 02:47:39;;;;;;;;;;;;;;;;;;;;;
2024/01/31 03:00:04;;;;;;;16.50;10.00;;;;;;;5.08;74.52;101687.86;127950;1283;128999;-63
2024/01/31 03:04:07;;;;;;;17.60;10.20;;;;;;;5.09;74.35;101689.80;127243;1287;114904;-63
2024/01/31 03:08:03;;;;;;;17.70;11.50;;;;;;;5.10;74.28;101688.20;122203;1314;5417361;-62
2024/01/31 03:12:04;;;;;;;17.90;10.80;;;;;;;5.10;74.09;101689.44;125305;1302;114907;-63
2024/01/31 03:15:55;;;;;;;;;;;;;;;;;;;;;
2024/01/31 03:19:57;;;;;;;21.30;12.70;;;;;;;5.07;74.03;101688.39;124499;1330;114825;-64
2024/01/31 03:28:18;;;;;;;18.90;10.80;;;;;;;5.11;73.92;101699.00;126413;1295;636024;-63
2024/01/31 03:32:21;;;;;;;17.30;9.70;;;;;;;5.11;73.84;101701.84;128531;1275;128951;-64
2024/01/31 03:36:23;;;;;;;17.40;11.40;;;;;;;5.10;73.68;101702.36;127797;1302;114850;-64
2024/01/31 03:40:23;;;;;;;14.90;9.30;;;;;;;5.10;73.57;101700.24;122731;1290;5433064;-65
2024/01/31 03:44:24;;;;;;;18.90;10.60;;;;;;;5.07;73.59;101702.38;125799;1316;115047;-63
2024/01/31 03:48:25;;;;;;;16.20;10.80;;;;;;;5.03;73.43;101699.38;125381;1321;114970;-63
2024/01/31 03:52:19;;;;;;;16.90;9.90;;;;;;;5.00;73.64;101709.14;124035;1316;115007;-63
2024/01/31 03:56:18;;;;;;;;;;;;;;;;;;;;;
2024/01/31 04:00:49;;;;;;;;;;;;;;;;;;;;;
2024/01/31 04:04:42;;;;;;;18.30;11.30;;;;;;;5.07;73.66;101715.11;128336;1278;128424;-63
2024/01/31 04:08:45;;;;;;;20.30;11.50;;;;;;;5.12;73.81;101709.98;127130;1306;114908;-64
2024/01/31 04:12:47;;;;;;;17.60;11.10;;;;;;;5.17;73.57;101705.87;121934;1299;5512421;-63
2024/01/31 04:16:48;;;;;;;17.60;10.70;;;;;;;5.21;74.00;101708.34;124235;1332;114968;-64
2024/01/31 04:25:08;;;;;;;20.20;12.50;;;;;;;5.34;73.79;101712.35;126744;1289;636122;-63
2024/01/31 04:29:04;;;;;;;17.50;11.80;;;;;;;5.37;73.62;101714.45;128209;1275;128151;-65
2024/01/31 04:32:58;;;;;;;;;;;;;;;;;;;;;
2024/01/31 04:37:03;;;;;;;18.50;11.60;;;;;;;5.46;73.69;101715.12;123947;1296;5406673;-65
2024/01/31 04:41:03;;;;;;;16.60;10.10;;;;;;;5.48;73.63;101715.28;125470;1302;114936;-64
2024/01/31 04:45:06;;;;;;;18.40;11.80;;;;;;;5.51;73.56;101716.86;124725;1309;114957;-65
2024/01/31 04:53:51;;;;;;;17.20;10.60;;;;;;;5.61;73.74;101732.23;126389;1295;635956;-64
2024/01/31 04:57:16;;;;;;;19.20;11.40;;;;;;;5.61;73.54;101731.00;128033;1297;129116;-65
2024/01/31 05:05:22;;;;;;;;;;;;;;;;;;;;;
2024/01/31 05:09:24;;;;;;;24.10;12.10;;;;;;;5.73;73.77;101731.77;125394;1302;115389;-63
2024/01/31 05:13:25;;;;;;;17.60;11.60;;;;;;;5.76;73.72;101740.11;124690;1309;114891;-64
2024/01/31 05:21:49;;;;;;;19.70;12.10;;;;;;;5.84;73.77;101738.46;126303;1296;637135;-64
2024/01/31 05:25:37;;;;;;;20.30;11.20;;;;;;;5.85;73.87;101740.41;128271;1275;128915;-63
2024/01/31 05:29:37;;;;;;;17.80;10.90;;;;;;;5.87;73.90;101740.75;128048;1275;114881;-66
2024/01/31 05:33:42;;;;;;;21.60;12.00;;;;;;;5.88;73.69;101743.58;125661;1289;5428412;-65
2024/01/31 05:37:49;;;;;;;21.30;14.30;;;;;;;5.88;73.82;101741.09;126974;1303;114938;-64
2024/01/31 05:40:59;;;;;;;23.80;12.50;;;;;;;5.90;73.73;101743.03;125238;1307;116555;-65
2024/01/31 05:44:59;;;;;;;;;;;;;;;;;;;;;
2024/01/31 05:48:50;;;;;;;22.40;13.00;;;;;;;5.91;73.72;101744.09;124062;1314;114918;-64
2024/01/31 05:56:57;;;;;;;;;;;;;;;;;;;;;
2024/01/31 06:00:59;;;;;;;;;;;;;;;;;;;;;
2024/01/31 06:05:09;;;;;;;20.60;13.70;;;;;;;5.96;73.81;101737.85;126036;1293;114911;-64
2024/01/31 06:09:12;;;;;;;23.00;12.90;;;;;;;5.97;73.87;101745.29;120868;1318;5405549;-63
2024/01/31 06:12:55;;;;;;;;;;;;;;;;;;;;;
2024/01/31 06:21:10;;;;;;;;;;;;;;;;;;;;;
2024/01/31 06:25:05;;;;;;;26.60;13.50;;;;;;;6.00;74.35;101743.71;128449;1276;128988;-63
2024/01/31 06:29:07;;;;;;;24.70;14.50;;;;;;;6.01;74.29;101744.59;127782;1300;114845;-64
2024/01/31 06:37:04;;;;;;;22.10;14.50;;;;;;;6.02;74.60;101763.04;126052;1296;114915;-64
2024/01/31 06:40:58;;;;;;;20.20;12.60;;;;;;;6.02;74.42;101767.83;125551;1304;114872;-64
2024/01/31 06:48:48;;;;;;;21.90;13.00;;;;;;;6.02;74.50;101765.52;124222;1314;130001;-63
2024/01/31 06:52:48;;;;;;;;;;;;;;;;;;;;;
2024/01/31 06:57:07;;;;;;;25.30;15.50;;;;;;;6.07;74.77;101772.21;126417;1306;636085;-62
2024/01/31 07:01:10;;;;;;;24.80;13.80;;;;;;;6.08;74.62;101776.30;128757;1273;128950;-64
2024/01/31 07:05:04;;;;;;;21.30;11.90;;;;;;;6.10;74.72;101775.75;127367;1290;114900;-64
2024/01/31 07:09:12;;;;;;;21.40;12.70;;;;;;;6.12;74.64;101775.55;122923;1285;5587830;-65
2024/01/31 07:13:13;;;;;;;22.50;11.80;;;;;;;6.14;74.56;101781.38;125919;1316;115387;-63
2024/01/31 07:17:13;;;;;;;24.30;13.20;;;;;;;6.15;74.60;101780.30;124740;1319;114877;-64
2024/01/31 07:21:12;;;;;;;;;;;;;;;;;;;;;
2024/01/31 07:25:11;;;;;;;;;;;;;;;;;;;;;
2024/01/31 07:28:58;;;;;;;;;;;;;;;;;;;;;
2024/01/31 07:33:18;;;;;;;23.40;14.30;;;;;;;6.31;74.50;101795.64;126404;1295;636358;-68
2024/01/31 07:37:21;;;;;;;21.20;12.80;;;;;;;6.31;74.75;101798.46;128563;1276;128981;-64
2024/01/31 07:41:23;;;;;;;21.90;13.30;;;;;;;6.33;74.76;101803.96;127012;1290;114973;-63
2024/01/31 07:45:27;;;;;;;21.70;13.60;;;;;;;6.34;74.68;101804.65;121818;1319;5414454;-67
2024/01/31 07:49:18;;;;;;;;;;;;;;;;;;;;;
2024/01/31 07:53:39;;;;;;;24.10;12.90;;;;;;;6.45;74.54;101794.10;126486;1307;635907;-63
2024/01/31 07:57:46;;;;;;;21.50;13.20;;;;;;;6.49;74.58;101794.77;127812;1282;128695;-64
2024/01/31 08:01:46;;;;;;;23.20;12.90;;;;;;;6.56;74.66;101794.01;126842;1290;115028;-64
2024/01/31 08:05:41;;;;;;;25.20;14.30;;;;;;;6.61;74.71;101797.87;121616;1321;5452484;-63
2024/01/31 08:09:42;;;;;;;;;;;;;;;;;;;;;
2024/01/31 08:13:43;;;;;;;;;;;;;;;;;;;;;
2024/01/31 08:17:54;;;;;;;;;;;;;;;;;;;;;
2024/01/31 08:21:59;;;;;;;33.50;19.50;;;;;;;6.94;74.40;101805.73;128054;1282;128818;-64
2024/01/31 08:30:09;;;;;;;52.00;21.80;;;;;;;7.06;74.45;101814.48;122606;1292;5427647;-64
2024/01/31 08:42:33;;;;;;;40.90;19.70;;;;;;;7.29;74.13;101806.05;126523;1293;636008;-63
2024/01/31 08:46:34;;;;;;;61.60;23.70;;;;;;;7.49;73.93;101815.08;127800;1284;129051;-63
2024/01/31 08:50:37;;;;;;;41.90;19.00;;;;;;;7.69;73.87;101818.19;126156;1292;115031;-63
2024/01/31 09:02:52;;;;;;;;;;;;;;;;;;;;;
2024/01/31 09:06:56;;;;;;;30.20;17.50;;;;;;;8.31;73.09;101820.35;127888;1301;128922;-65
2024/01/31 09:10:58;;;;;;;;;;;;;;;;;;;;;
2024/01/31 09:15:01;;;;;;;25.70;16.70;;;;;;;8.64;72.48;101821.45;121005;1308;5422398;-63
2024/01/31 09:23:20;;;;;;;25.50;13.80;;;;;;;8.74;71.76;101830.89;126304;1296;635949;-63
2024/01/31 09:27:23;;;;;;;22.60;13.90;;;;;;;8.68;71.52;101833.13;128092;1299;128390;-63
2024/01/31 09:31:10;;;;;;;;;;;;;;;;;;;;;
2024/01/31 09:39:18;;;;;;;21.40;11.10;;;;;;;9.06;72.32;101829.98;124672;1313;114752;-64
2024/01/31 09:43:20;;;;;;;17.90;10.30;;;;;;;9.22;71.78;101830.73;123566;1336;115008;-67
2024/01/31 09:51:41;;;;;;;17.30;10.50;;;;;;;9.52;71.04;101826.58;126488;1295;635539;-64
2024/01/31 09:55:32;;;;;;;18.40;10.40;;;;;;;9.77;71.48;101823.75;128397;1286;129082;-64
2024/01/31 09:59:35;;;;;;;18.80;10.50;;;;;;;9.95;70.75;101819.23;127133;1284;115378;-64
2024/01/31 10:03:39;;;;;;;21.40;12.70;;;;;;;10.10;70.57;101821.23;122328;1305;5447357;-64
2024/01/31 10:07:40;;;;;;;17.60;10.50;;;;;;;10.11;70.05;101819.59;125285;1305;115031;-64
2024/01/31 10:11:34;;;;;;;22.60;12.30;;;;;;;10.05;69.93;101815.45;124770;1327;114982;-64
2024/01/31 10:19:40;;;;;;;;;;;;;;;;;;;;;
2024/01/31 10:23:47;;;;;;;19.20;11.00;;;;;;;9.77;69.50;101795.55;129018;1278;128856;-64
2024/01/31 10:27:47;;;;;;;;;;;;;;;;;;;;;
2024/01/31 10:35:52;;;;;;;18.10;11.50;;;;;;;9.51;69.55;101785.20;126517;1292;115028;-64
2024/01/31 10:39:53;;;;;;;19.20;11.60;;;;;;;9.47;69.77;101784.60;125392;1298;114945;-63
2024/01/31 10:43:51;;;;;;;;;;;;;;;;;;;;;
2024/01/31 10:52:11;;;;;;;;;;;;;;;;;;;;;
2024/01/31 10:56:15;;;;;;;15.00;9.70;;;;;;;9.94;70.26;101778.23;128209;1289;128526;-64
2024/01/31 11:00:18;;;;;;;12.50;9.80;;;;;;;10.20;70.12;101774.92;126796;1292;115138;-63
2024/01/31 11:04:18;;;;;;;12.10;7.50;;;;;;;10.47;69.90;101767.70;122138;1296;5402660;-65
2024/01/31 11:08:27;;;;;;;10.80;7.00;;;;;;;10.61;69.69;101758.57;125277;1317;114980;-65
2024/01/31 11:12:26;;;;;;;9.20;6.40;;;;;;;10.76;69.22;101755.33;124085;1321;114993;-65
2024/01/31 11:16:26;;;;;;;;;;;;;;;;;;;;;
2024/01/31 11:21:11;;;;;;;8.60;4.60;;;;;;;10.99;68.48;101742.38;126377;1305;636315;-67
2024/01/31 11:24:13;;;;;;;;;;;;;;;;;;;;;
2024/01/31 11:27:25;;;;;;;8.80;4.70;;;;;;;10.97;67.82;101741.00;128801;1276;115249;-64
2024/01/31 11:31:17;;;;;;;13.60;6.80;;;;;;;10.97;67.75;101741.18;128445;1276;114931;-67
2024/01/31 11:35:05;;;;;;;8.10;4.90;;;;;;;11.01;67.83;101736.06;124329;1281;5413280;-66
2024/01/31 11:38:51;;;;;;;8.00;5.20;;;;;;;11.03;67.59;101731.52;127151;1294;114916;-66
2024/01/31 11:42:51;;;;;;;;;;;;;;;;;;;;;
2024/01/31 11:46:44;;;;;;;7.30;4.50;;;;;;;11.05;67.29;101727.88;127071;1290;114947;-65
2024/01/31 11:50:38;;;;;;;8.50;5.10;;;;;;;11.03;66.97;101730.11;126263;1300;114923;-66
2024/01/31 11:54:32;;;;;;;6.20;4.70;;;;;;;10.96;66.55;101731.90;125992;1299;114852;-66
2024/01/31 11:58:32;;;;;;;6.60;5.00;;;;;;;10.90;66.64;101731.71;125920;1314;115041;-65
2024/01/31 12:01:55;;;;;;;10.50;5.70;;;;;;;10.84;66.52;101734.73;126575;1296;128679;-64
2024/01/31 12:05:58;;;;;;;9.90;7.30;;;;;;;10.78;66.39;101732.02;126730;1294;114925;-65
2024/01/31 12:10:00;;;;;;;8.10;4.60;;;;;;;10.77;66.57;101731.34;125930;1313;115336;-64
2024/01/31 12:13:46;;;;;;;;;;;;;;;;;;;;;
2024/01/31 12:17:37;;;;;;;10.20;6.20;;;;;;;10.69;66.56;101723.70;125444;1308;116335;-65
2024/01/31 12:21:41;;;;;;;9.80;6.00;;;;;;;10.72;66.70;101722.55;125292;1302;131893;-64
2024/01/31 12:25:41;;;;;;;8.50;5.20;;;;;;;10.79;66.85;101722.89;125405;1308;114878;-65
2024/01/31 12:29:46;;;;;;;10.70;6.50;;;;;;;10.76;66.34;101717.95;124618;1327;114997;-65
2024/01/31 12:33:45;;;;;;;8.80;6.00;;;;;;;10.76;66.50;101720.84;125220;1318;114839;-64
2024/01/31 12:37:47;;;;;;;9.40;4.80;;;;;;;10.72;66.36;101718.10;123946;1329;115339;-64
2024/01/31 12:41:47;;;;;;;;;;;;;;;;;;;;;
2024/01/31 12:46:01;;;;;;;7.00;5.00;;;;;;;10.63;65.91;101722.08;126340;1296;635538;-65
2024/01/31 12:49:56;;;;;;;;;;;;;;;;;;;;;
2024/01/31 12:53:41;;;;;;;;;;;;;;;;;;;;;
2024/01/31 12:57:44;;;;;;;9.30;6.10;;;;;;;10.47;65.91;101718.39;127916;1284;114961;-64
2024/01/31 13:01:35;;;;;;;;;;;;;;;;;;;;;
2024/01/31 13:05:50;;;;;;;;;;;;;;;;;;;;;
2024/01/31 13:09:41;;;;;;;11.60;6.10;;;;;;;10.20;65.92;101714.40;125374;1313;114869;-65
2024/01/31 13:13:40;;;;;;;;;;;;;;;;;;;;;
2024/01/31 13:17:34;;;;;;;;;;;;;;;;;;;;;
2024/01/31 13:25:57;;;;;;;6.10;3.40;;;;;;;10.24;65.72;101691.08;126350;1295;635737;-64
2024/01/31 13:29:59;;;;;;;6.20;3.70;;;;;;;10.24;65.92;101694.30;128701;1275;128429;-65
2024/01/31 13:34:02;;;;;;;5.80;3.10;;;;;;;10.27;65.88;101702.44;127267;1305;114894;-65
2024/01/31 13:38:02;;;;;;;4.20;3.30;;;;;;;10.20;65.46;101690.30;122667;1295;5405202;-64
2024/01/31 13:42:03;;;;;;;;;;;;;;;;;;;;;
2024/01/31 13:46:06;;;;;;;5.90;3.90;;;;;;;10.08;65.50;101673.47;125714;1304;114913;-60
2024/01/31 13:49:49;;;;;;;4.80;2.90;;;;;;;10.01;65.77;101672.91;123836;1334;115007;-64
2024/01/31 13:58:14;;;;;;;4.60;3.10;;;;;;;9.89;65.93;101669.46;126059;1298;637023;-64
2024/01/31 14:02:05;;;;;;;;;;;;;;;;;;;;;
2024/01/31 14:10:02;;;;;;;;;;;;;;;;;;;;;
2024/01/31 14:18:25;;;;;;;3.90;2.50;;;;;;;9.50;65.59;101659.34;126256;1299;635172;-67
2024/01/31 14:22:27;;;;;;;5.70;2.90;;;;;;;9.45;65.65;101659.80;128814;1286;129250;-64
2024/01/31 14:26:21;;;;;;;4.70;3.50;;;;;;;9.42;65.79;101662.72;127872;1295;114915;-63
2024/01/31 14:30:24;;;;;;;4.40;3.50;;;;;;;9.36;65.92;101656.80;123326;1299;5423628;-64
2024/01/31 14:34:29;;;;;;;6.10;3.30;;;;;;;9.27;65.84;101655.20;126605;1296;114834;-64
2024/01/31 14:38:31;;;;;;;5.10;3.60;;;;;;;9.17;65.93;101643.51;125483;1318;114892;-66
2024/01/31 14:46:52;;;;;;;4.60;3.00;;;;;;;8.91;66.06;101654.38;126343;1305;637220;-67
2024/01/31 14:50:54;;;;;;;4.60;3.00;;;;;;;8.75;66.12;101648.65;128584;1278;128881;-64
2024/01/31 14:54:57;;;;;;;4.80;3.00;;;;;;;8.63;66.41;101639.26;127172;1286;114878;-65
2024/01/31 14:58:58;;;;;;;6.40;3.30;;;;;;;8.53;66.63;101629.14;121886;1301;5464553;-64
2024/01/31 15:02:57;;;;;;;5.10;2.90;;;;;;;8.46;66.61;101626.23;124416;1322;114989;-65
2024/01/31 15:11:19;;;;;;;8.70;4.40;;;;;;;8.32;67.22;101634.65;126244;1295;636900;-66
2024/01/31 15:15:12;;;;;;;;;;;;;;;;;;;;;
2024/01/31 15:19:16;;;;;;;7.60;5.30;;;;;;;8.15;67.54;101646.89;127972;1283;114730;-64
2024/01/31 15:23:17;;;;;;;9.30;5.10;;;;;;;8.09;67.46;101646.30;123688;1287;5406397;-66
2024/01/31 15:27:18;;;;;;;7.50;4.50;;;;;;;8.02;67.78;101650.15;126146;1314;114829;-66
2024/01/31 15:31:12;;;;;;;;;;;;;;;;;;;;;
2024/01/31 15:35:13;;;;;;;12.90;5.80;;;;;;;7.86;67.84;101651.66;124401;1320;130189;-65
2024/01/31 15:39:08;;;;;;;;;;;;;;;;;;;;;
2024/01/31 15:43:33;;;;;;;11.30;6.70;;;;;;;7.78;68.16;101654.81;125790;1300;635519;-66
2024/01/31 15:47:35;;;;;;;8.10;5.60;;;;;;;7.72;68.28;101651.88;128170;1281;129984;-65
2024/01/31 15:51:38;;;;;;;;;;;;;;;;;;;;;
2024/01/31 15:59:21;;;;;;;;;;;;;;;;;;;;;
2024/01/31 16:07:40;;;;;;;8.60;5.00;;;;;;;7.54;69.22;101660.17;126238;1295;635783;-64
2024/01/31 16:11:34;;;;;;;;;;;;;;;;;;;;;
2024/01/31 16:15:39;;;;;;;8.90;6.30;;;;;;;7.44;69.30;101668.48;127493;1293;114865;-65
2024/01/31 16:19:45;;;;;;;10.00;6.20;;;;;;;7.38;69.59;101668.91;122647;1293;5580978;-65
2024/01/31 16:23:47;;;;;;;12.00;6.90;;;;;;;7.34;69.76;101666.31;125822;1301;114963;-64
2024/01/31 16:27:48;;;;;;;10.80;7.80;;;;;;;7.30;69.82;101665.48;124678;1313;114968;-64
2024/01/31 16:36:17;;;;;;;;;;;;;;;;;;;;;
2024/01/31 16:44:20;;;;;;;10.80;6.20;;;;;;;7.22;70.54;101655.45;126969;1293;114923;-66
2024/01/31 16:48:20;;;;;;;;;;;;;;;;;;;;;
2024/01/31 16:52:37;;;;;;;13.10;6.50;;;;;;;7.19;70.57;101648.04;126259;1298;115066;-65
2024/01/31 16:56:36;;;;;;;;;;;;;;;;;;;;;
2024/01/31 17:04:50;;;;;;;9.50;6.40;;;;;;;7.13;70.68;101647.94;126537;1295;636022;-65
2024/01/31 17:08:35;;;;;;;10.20;6.90;;;;;;;7.09;70.90;101640.54;129315;1270;128829;-66
2024/01/31 17:12:36;;;;;;;;;;;;;;;;;;;;;
2024/01/31 17:16:41;;;;;;;9.80;5.90;;;;;;;7.07;70.95;101627.95;126974;1287;114888;-67
2024/01/31 17:20:43;;;;;;;11.40;6.60;;;;;;;7.04;71.22;101623.02;122964;1313;114935;-68
2024/01/31 17:24:40;;;;;;;;;;;;;;;;;;;;;
2024/01/31 17:28:30;;;;;;;12.40;9.10;;;;;;;7.00;71.52;101618.80;124742;1307;114810;-65
2024/01/31 17:36:59;;;;;;;15.30;9.70;;;;;;;7.01;71.93;101607.06;125888;1311;638598;-66
2024/01/31 17:40:47;;;;;;;;;;;;;;;;;;;;;
2024/01/31 17:44:46;;;;;;;;;;;;;;;;;;;;;
2024/01/31 17:48:49;;;;;;;15.90;9.40;;;;;;;6.93;71.64;101581.95;123499;1284;5449111;-65
2024/01/31 17:56:54;;;;;;;13.50;7.10;;;;;;;6.92;71.97;101592.97;126289;1295;636382;-65
2024/01/31 18:00:55;;;;;;;12.50;7.90;;;;;;;6.88;72.04;101591.23;128631;1277;128821;-65
2024/01/31 18:04:58;;;;;;;16.90;10.00;;;;;;;6.88;72.06;101585.92;128077;1288;114968;-65
2024/01/31 18:08:43;;;;;;;;;;;;;;;;;;;;;
2024/01/31 18:12:45;;;;;;;16.30;10.70;;;;;;;6.87;72.07;101579.56;126362;1309;114943;-65
2024/01/31 18:16:46;;;;;;;17.20;11.00;;;;;;;6.84;72.13;101576.41;126154;1298;114980;-65
2024/01/31 18:20:44;;;;;;;;;;;;;;;;;;;;;
2024/01/31 18:24:32;;;;;;;;;;;;;;;;;;;;;
2024/01/31 18:28:53;;;;;;;11.50;6.40;;;;;;;6.77;71.92;101576.84;126294;1292;636020;-65
2024/01/31 18:32:52;;;;;;;;;;;;;;;;;;;;;
2024/01/31 18:36:43;;;;;;;;;;;;;;;;;;;;;
2024/01/31 18:40:40;;;;;;;;;;;;;;;;;;;;;
2024/01/31 18:44:41;;;;;;;10.20;6.90;;;;;;;6.66;71.30;101548.21;124227;1315;115332;-64
2024/01/31 18:48:40;;;;;;;;;;;;;;;;;;;;;
2024/01/31 18:57:00;;;;;;;;;;;;;;;;;;;;;
2024/01/31 19:01:04;;;;;;;9.10;6.00;;;;;;;6.52;70.78;101535.61;127508;1286;129490;-66
2024/01/31 19:05:04;;;;;;;9.00;6.90;;;;;;;6.48;70.78;101536.91;127643;1283;114885;-64
2024/01/31 19:09:07;;;;;;;9.70;6.40;;;;;;;6.45;70.83;101530.20;123452;1293;5440975;-66
2024/01/31 19:13:09;;;;;;;9.30;6.60;;;;;;;6.43;70.62;101525.09;126158;1298;114989;-67
2024/01/31 19:25:37;;;;;;;38.80;22.40;;;;;;;6.32;70.56;101503.04;128155;1284;127836;-65
2024/01/31 19:29:22;;;;;;;28.80;16.30;;;;;;;6.32;70.55;101499.50;127273;1287;114864;-66
2024/01/31 19:33:27;;;;;;;;;;;;;;;;;;;;;
2024/01/31 19:37:21;;;;;;;;;;;;;;;;;;;;;
2024/01/31 19:45:31;;;;;;;33.90;19.50;;;;;;;6.31;71.01;101480.89;126333;1296;635257;-64
2024/01/31 19:49:34;;;;;;;33.00;19.70;;;;;;;6.28;70.89;101476.85;128461;1289;129023;-65
2024/01/31 19:53:34;;;;;;;;;;;;;;;;;;;;;
2024/01/31 19:57:39;;;;;;;;;;;;;;;;;;;;;
2024/01/31 20:01:41;;;;;;;31.90;19.60;;;;;;;6.08;70.65;101455.61;125549;1320;114768;-64
2024/01/31 20:10:03;;;;;;;54.80;28.50;;;;;;;5.78;70.49;101451.14;126243;1308;636184;-63
2024/01/31 20:14:07;;;;;;;46.60;26.20;;;;;;;5.62;70.58;101450.77;127711;1292;129067;-65
2024/01/31 20:18:09;;;;;;;55.30;27.60;;;;;;;5.43;70.63;101446.71;126967;1301;114853;-63
2024/01/31 20:22:00;;;;;;;54.00;28.70;;;;;;;5.22;70.68;101440.70;121796;1305;5417428;-65
2024/01/31 20:25:59;;;;;;;41.90;23.50;;;;;;;5.04;70.88;101438.20;124568;1326;115001;-65
2024/01/31 20:34:28;;;;;;;45.90;26.40;;;;;;;4.73;71.39;101426.05;125288;1306;638494;-64
2024/01/31 20:42:31;;;;;;;;;;;;;;;;;;;;;
2024/01/31 20:46:44;;;;;;;43.60;22.60;;;;;;;4.24;71.88;101405.67;123119;1309;3589032;-64
2024/01/31 20:50:47;;;;;;;53.50;28.00;;;;;;;4.12;71.97;101389.47;125040;1306;115264;-64
2024/01/31 20:54:49;;;;;;;48.90;27.30;;;;;;;3.97;72.02;101386.89;129474;1302;112815;-64
2024/01/31 21:03:10;;;;;;;87.20;37.40;;;;;;;3.65;72.18;101375.17;126372;1305;635954;-63
2024/01/31 21:07:10;;;;;;;;;;;;;;;;;;;;;
2024/01/31 21:11:14;;;;;;;94.60;42.80;;;;;;;3.29;72.57;101369.27;126899;1293;114885;-63
2024/01/31 21:15:22;;;;;;;86.50;39.80;;;;;;;3.15;72.81;101371.43;122830;1292;5413115;-62
2024/01/31 21:27:43;;;;;;;;;;;;;;;;;;;;;
2024/01/31 21:31:44;;;;;;;;;;;;;;;;;;;;;
2024/01/31 21:35:49;;;;;;;51.40;25.00;;;;;;;2.53;73.75;101346.74;129027;1266;114973;-63
2024/01/31 21:39:50;;;;;;;54.40;25.80;;;;;;;2.40;73.46;101337.39;123798;1283;5404138;-64
2024/01/31 21:43:37;;;;;;;;;;;;;;;;;;;;;
2024/01/31 21:47:42;;;;;;;52.00;26.70;;;;;;;2.11;74.09;101320.61;125850;1298;114938;-64
2024/01/31 21:51:25;;;;;;;59.20;27.80;;;;;;;2.00;74.03;101308.43;124620;1309;129803;-63
2024/01/31 21:55:23;;;;;;;;;;;;;;;;;;;;;
2024/01/31 22:03:29;;;;;;;;;;;;;;;;;;;;;
2024/01/31 22:06:34;;;;;;;47.90;25.50;;;;;;;1.52;74.73;101270.25;127992;1282;127879;-63
2024/01/31 22:09:48;;;;;;;55.90;26.40;;;;;;;1.45;74.73;101259.48;128700;1273;114751;-64
2024/01/31 22:13:41;;;;;;;43.20;24.40;;;;;;;1.38;75.31;101247.50;128671;1276;114875;-66
2024/01/31 22:17:37;;;;;;;51.50;24.60;;;;;;;1.27;74.98;101235.83;124054;1289;5418514;-64
2024/01/31 22:21:27;;;;;;;;;;;;;;;;;;;;;
2024/01/31 22:25:13;;;;;;;58.10;27.30;;;;;;;1.14;75.63;101224.18;126730;1305;115099;-63
2024/01/31 22:29:20;;;;;;;62.40;27.70;;;;;;;1.07;75.59;101218.86;127218;1289;128930;-62
2024/01/31 22:33:21;;;;;;;84.50;38.40;;;;;;;0.99;76.25;101206.70;126809;1292;115185;-63
2024/01/31 22:37:20;;;;;;;;;;;;;;;;;;;;;
2024/01/31 22:40:52;;;;;;;;;;;;;;;;;;;;;
2024/01/31 22:44:15;;;;;;;67.20;35.10;;;;;;;0.84;76.50;101210.67;124898;1312;114972;-65
2024/01/31 22:48:04;;;;;;;52.20;27.50;;;;;;;0.79;76.63;101208.00;125060;1318;130204;-63
2024/01/31 22:51:25;;;;;;;55.10;27.30;;;;;;;0.72;76.79;101209.02;124676;1326;114885;-63
2024/01/31 22:54:38;;;;;;;50.00;24.50;;;;;;;0.66;76.88;101203.55;125278;1317;114977;-67
2024/01/31 22:57:49;;;;;;;52.80;29.30;;;;;;;0.61;77.20;101198.94;125748;1317;114875;-66
2024/01/31 23:00:50;;;;;;;45.80;24.00;;;;;;;0.55;77.16;101188.36;125999;1295;114844;-63
2024/01/31 23:04:52;;;;;;;45.80;24.20;;;;;;;0.48;77.14;101180.23;126340;1288;116506;-64
2024/01/31 23:08:53;;;;;;;52.90;29.10;;;;;;;0.38;77.32;101165.05;125952;1304;129747;-63
2024/01/31 23:12:57;;;;;;;50.80;24.90;;;;;;;0.31;77.70;101148.67;125409;1303;114963;-65
2024/01/31 23:20:57;;;;;;;45.30;23.90;;;;;;;0.17;78.19;101133.47;125839;1315;114874;-62
2024/01/31 23:24:57;;;;;;;55.20;25.50;;;;;;;0.14;78.57;101129.95;125413;1320;115076;-63
2024/01/31 23:28:58;;;;;;;54.00;28.10;;;;;;;0.13;78.98;101136.60;125344;1296;129841;-65
2024/01/31 23:32:37;;;;;;;;;;;;;;;0.11;79.15;101119.55;124499;1312;114971;-64
2024/01/31 23:40:59;;;;;;;56.90;26.60;;;;;;;0.10;79.26;101097.23;125967;1300;636904;-63
2024/01/31 23:45:03;;;;;;;53.20;25.20;;;;;;;0.05;79.60;101090.71;128430;1286;128944;-64
2024/01/31 23:57:09;;;;;;;43.30;20.90;;;;;;;-0.02;79.73;101068.01;125185;1323;114934;-64
